createdAt,value
2023-08-29T00:01:37.912Z,88.60
2023-08-29T00:04:26.571Z,88.38
2023-08-29T00:07:15.196Z,88.45
2023-08-29T00:10:04.430Z,88.36
2023-08-29T00:12:53.725Z,88.55
2023-08-29T00:15:42.337Z,88.38
2023-08-29T00:18:30.911Z,88.47
2023-08-29T00:21:19.507Z,88.32
2023-08-29T00:24:10.932Z,88.50
2023-08-29T00:27:00.022Z,88.52
2023-08-29T00:29:48.674Z,88.53
2023-08-29T00:32:37.322Z,88.37
2023-08-29T00:35:26.131Z,88.50
2023-08-29T00:38:15.665Z,88.23
2023-08-29T00:41:05.015Z,88.39
2023-08-29T00:43:53.770Z,88.37
2023-08-29T00:46:44.232Z,88.48
2023-08-29T00:49:32.972Z,88.45
2023-08-29T00:52:21.821Z,87.92
2023-08-29T00:55:10.599Z,87.80
2023-08-29T00:58:01.423Z,87.75
2023-08-29T01:00:50.216Z,87.67
2023-08-29T01:03:40.115Z,87.71
2023-08-29T01:06:28.997Z,87.91
2023-08-29T01:09:17.792Z,87.92
2023-08-29T01:12:12.423Z,87.86
2023-08-29T01:15:13.964Z,87.93
2023-08-29T01:18:07.090Z,88.12
2023-08-29T01:21:03.999Z,88.13
2023-08-29T01:24:02.625Z,88.13
2023-08-29T01:26:52.366Z,88.30
2023-08-29T01:29:42.658Z,88.38
2023-08-29T01:32:31.974Z,88.32
2023-08-29T01:35:22.923Z,88.27
2023-08-29T01:38:11.513Z,88.43
2023-08-29T01:41:00.170Z,88.85
2023-08-29T01:43:48.850Z,88.89
2023-08-29T01:46:38.450Z,89.06
2023-08-29T01:49:28.252Z,88.66
2023-08-29T01:52:17.059Z,88.95
2023-08-29T01:55:06.167Z,89.20
2023-08-29T01:57:55.729Z,89.70
2023-08-29T02:00:45.379Z,89.46
2023-08-29T02:03:34.096Z,88.90
2023-08-29T02:06:22.777Z,89.18
2023-08-29T02:09:12.326Z,89.68
2023-08-29T02:12:01.167Z,89.91
2023-08-29T02:14:49.871Z,90.17
2023-08-29T02:17:38.645Z,90.84
2023-08-29T02:20:30.446Z,90.74
2023-08-29T02:23:19.130Z,90.46
2023-08-29T02:26:09.248Z,90.81
2023-08-29T02:28:57.976Z,90.74
2023-08-29T02:31:46.772Z,90.53
2023-08-29T02:34:35.376Z,89.77
2023-08-29T02:37:25.567Z,89.35
2023-08-29T02:40:14.387Z,90.00
2023-08-29T02:43:03.060Z,90.27
2023-08-29T02:45:52.003Z,90.65
2023-08-29T02:48:40.693Z,90.26
2023-08-29T02:51:29.318Z,89.83
2023-08-29T02:54:19.421Z,89.23
2023-08-29T02:57:08.073Z,89.33
2023-08-29T02:59:56.823Z,89.29
2023-08-29T03:02:45.570Z,88.82
2023-08-29T03:05:34.451Z,89.16
2023-08-29T03:08:23.336Z,89.35
2023-08-29T03:11:12.157Z,89.66
2023-08-29T03:14:00.841Z,89.44
2023-08-29T03:16:49.511Z,89.55
2023-08-29T03:19:38.327Z,89.73
2023-08-29T03:22:26.920Z,90.15
2023-08-29T03:25:15.814Z,89.97
2023-08-29T03:28:05.428Z,89.84
2023-08-29T03:30:54.384Z,89.97
2023-08-29T03:33:44.877Z,90.18
2023-08-29T03:36:33.651Z,90.19
2023-08-29T03:39:22.401Z,90.40
2023-08-29T03:42:11.042Z,90.46
2023-08-29T03:44:59.689Z,91.03
2023-08-29T03:47:49.600Z,90.85
2023-08-29T03:50:38.326Z,91.11
2023-08-29T03:53:26.927Z,91.51
2023-08-29T03:56:16.568Z,91.66
2023-08-29T03:59:05.338Z,92.08
2023-08-29T04:01:53.986Z,91.87
2023-08-29T04:04:45.632Z,92.06
2023-08-29T04:07:34.384Z,92.55
2023-08-29T04:10:23.006Z,92.63
2023-08-29T04:13:16.301Z,92.64
2023-08-29T04:16:05.402Z,93.11
2023-08-29T04:18:55.247Z,93.49
2023-08-29T04:21:44.227Z,93.81
2023-08-29T04:24:33.712Z,93.83
2023-08-29T04:27:22.895Z,94.09
2023-08-29T04:30:11.717Z,94.36
2023-08-29T04:33:00.869Z,94.69
2023-08-29T04:35:51.898Z,94.52
2023-08-29T04:38:43.156Z,94.68
2023-08-29T04:41:31.770Z,94.70
2023-08-29T04:44:20.548Z,94.88
2023-08-29T04:47:09.670Z,94.90
2023-08-29T04:49:58.940Z,95.02
2023-08-29T04:52:49.686Z,95.26
2023-08-29T04:55:38.794Z,95.45
2023-08-29T04:58:27.878Z,95.22
2023-08-29T05:01:18.246Z,95.15
2023-08-29T05:04:09.820Z,95.22
2023-08-29T05:06:58.454Z,95.20
2023-08-29T05:09:48.262Z,95.59
2023-08-29T05:12:37.060Z,95.52
2023-08-29T05:15:25.823Z,95.25
2023-08-29T05:18:14.680Z,95.68
2023-08-29T05:21:03.975Z,95.67
2023-08-29T05:23:52.626Z,94.93
2023-08-29T05:26:41.284Z,95.29
2023-08-29T05:29:29.934Z,95.08
2023-08-29T05:32:18.495Z,95.02
2023-08-29T05:35:10.457Z,95.39
2023-08-29T05:37:59.085Z,95.36
2023-08-29T05:40:55.224Z,95.25
2023-08-29T05:43:43.810Z,95.00
2023-08-29T05:46:32.603Z,94.93
2023-08-29T05:49:21.262Z,94.99
2023-08-29T05:52:10.000Z,95.03
2023-08-29T05:54:58.908Z,95.25
2023-08-29T05:57:47.541Z,95.61
2023-08-29T06:00:37.257Z,94.98
2023-08-29T06:03:26.060Z,95.03
2023-08-29T06:06:16.266Z,95.41
2023-08-29T06:09:04.959Z,95.13
2023-08-29T06:11:53.628Z,94.82
2023-08-29T06:14:42.345Z,95.12
2023-08-29T06:17:31.334Z,95.12
2023-08-29T06:20:20.095Z,95.20
2023-08-29T06:23:08.723Z,95.39
2023-08-29T06:25:57.412Z,94.87
2023-08-29T06:28:46.138Z,94.65
2023-08-29T06:31:34.893Z,95.12
2023-08-29T06:34:24.837Z,95.55
2023-08-29T06:37:13.446Z,95.53
2023-08-29T06:40:02.062Z,94.81
2023-08-29T06:42:50.789Z,94.71
2023-08-29T06:45:39.373Z,94.35
2023-08-29T06:48:27.973Z,94.85
2023-08-29T06:51:16.583Z,95.30
2023-08-29T06:54:05.496Z,95.19
2023-08-29T06:56:54.054Z,94.28
2023-08-29T06:59:42.647Z,93.37
2023-08-29T07:02:31.396Z,93.81
2023-08-29T07:05:20.566Z,92.80
2023-08-29T07:08:09.405Z,91.69
2023-08-29T07:10:58.361Z,92.05
2023-08-29T07:13:46.999Z,92.47
2023-08-29T07:16:35.688Z,93.50
2023-08-29T07:19:24.338Z,93.72
2023-08-29T07:25:06.721Z,93.73
2023-08-29T07:27:55.312Z,93.42
2023-08-29T07:30:46.871Z,92.89
2023-08-29T07:33:35.561Z,92.61
2023-08-29T07:36:24.241Z,92.53
2023-08-29T07:39:13.293Z,91.77
2023-08-29T07:42:01.923Z,90.98
2023-08-29T07:44:50.587Z,90.26
2023-08-29T07:47:39.316Z,90.07
2023-08-29T07:50:28.679Z,90.33
2023-08-29T07:53:17.512Z,90.64
2023-08-29T07:56:06.157Z,90.20
2023-08-29T07:58:54.914Z,89.95
2023-08-29T08:01:44.159Z,90.13
2023-08-29T08:04:32.806Z,90.18
2023-08-29T08:07:21.554Z,89.88
2023-08-29T08:10:11.665Z,89.94
2023-08-29T08:13:00.302Z,90.17
2023-08-29T08:15:48.868Z,90.25
2023-08-29T08:18:37.537Z,90.48
2023-08-29T08:21:26.146Z,90.24
2023-08-29T08:24:14.775Z,90.67
2023-08-29T08:27:03.716Z,91.12
2023-08-29T08:29:52.345Z,91.64
2023-08-29T08:32:40.964Z,91.51
2023-08-29T08:35:31.812Z,91.80
2023-08-29T08:38:22.256Z,91.13
2023-08-29T08:41:11.689Z,91.71
2023-08-29T08:44:05.081Z,92.42
2023-08-29T08:46:54.192Z,91.95
2023-08-29T08:49:43.988Z,91.23
2023-08-29T08:52:34.753Z,91.09
2023-08-29T08:55:24.133Z,91.23
2023-08-29T08:58:13.725Z,90.06
2023-08-29T09:01:02.597Z,89.99
2023-08-29T09:03:51.870Z,90.55
2023-08-29T09:06:40.799Z,90.40
2023-08-29T09:09:29.394Z,90.57
2023-08-29T09:12:18.032Z,89.88
2023-08-29T09:15:07.129Z,88.91
2023-08-29T09:17:55.959Z,89.54
2023-08-29T09:20:44.762Z,90.07
2023-08-29T09:23:38.884Z,90.68
2023-08-29T09:26:35.080Z,90.71
2023-08-29T09:29:25.191Z,88.92
2023-08-29T09:32:15.135Z,88.80
2023-08-29T09:35:06.804Z,89.44
2023-08-29T09:37:56.600Z,89.74
2023-08-29T09:40:50.455Z,88.72
2023-08-29T09:43:48.870Z,89.41
2023-08-29T09:46:37.673Z,89.19
2023-08-29T09:49:52.922Z,89.21
2023-08-29T09:52:42.095Z,88.42
2023-08-29T09:55:40.552Z,87.39
2023-08-29T09:58:30.775Z,86.31
2023-08-29T10:01:21.906Z,86.43
2023-08-29T10:04:13.131Z,86.89
2023-08-29T10:07:02.498Z,86.35
2023-08-29T10:09:52.358Z,86.05
2023-08-29T10:12:41.704Z,85.12
2023-08-29T10:15:34.549Z,85.41
2023-08-29T10:18:24.561Z,85.54
2023-08-29T10:21:14.102Z,85.95
2023-08-29T10:24:04.196Z,86.09
2023-08-29T10:26:53.384Z,85.91
2023-08-29T10:29:42.104Z,85.45
2023-08-29T10:32:31.424Z,85.24
2023-08-29T10:35:23.867Z,85.65
2023-08-29T10:38:16.709Z,85.80
2023-08-29T10:41:07.788Z,86.20
2023-08-29T10:44:44.814Z,86.13
2023-08-29T10:47:47.088Z,86.40
2023-08-29T10:50:37.994Z,85.78
2023-08-29T10:53:30.718Z,85.67
2023-08-29T10:59:30.409Z,86.20
2023-08-29T11:02:23.286Z,86.38
2023-08-29T11:05:13.494Z,86.50
2023-08-29T11:08:24.251Z,86.22
2023-08-29T11:11:17.835Z,86.39
2023-08-29T11:14:09.385Z,86.10
2023-08-29T11:17:13.508Z,86.36
2023-08-29T11:20:08.091Z,86.75
2023-08-29T11:22:56.975Z,86.76
2023-08-29T11:25:50.854Z,86.69
2023-08-29T11:28:43.328Z,86.59
2023-08-29T11:31:32.070Z,86.31
2023-08-29T11:34:22.155Z,86.30
2023-08-29T11:37:13.437Z,86.63
2023-08-29T11:40:06.830Z,85.99
2023-08-29T11:43:15.808Z,86.06
2023-08-29T11:46:07.932Z,86.28
2023-08-29T11:48:56.604Z,86.11
2023-08-29T11:51:45.570Z,86.82
2023-08-29T11:54:42.673Z,86.60
2023-08-29T11:57:31.534Z,86.06
2023-08-29T12:00:21.367Z,86.42
2023-08-29T12:03:10.221Z,86.67
2023-08-29T12:05:59.524Z,86.68
2023-08-29T12:08:49.125Z,86.18
2023-08-29T12:11:43.170Z,86.09
2023-08-29T12:14:32.361Z,85.39
2023-08-29T12:17:21.448Z,85.92
2023-08-29T12:20:13.533Z,86.42
2023-08-29T12:23:02.426Z,86.77
2023-08-29T12:25:50.990Z,86.08
2023-08-29T12:28:40.042Z,85.80
2023-08-29T12:31:28.818Z,86.18
2023-08-29T12:34:17.505Z,86.25
2023-08-29T12:37:06.748Z,85.80
2023-08-29T12:39:55.370Z,85.93
2023-08-29T12:42:45.263Z,86.40
2023-08-29T12:45:44.656Z,86.36
2023-08-29T12:48:42.141Z,85.00
2023-08-29T12:51:32.384Z,85.47
2023-08-29T12:54:20.980Z,85.09
2023-08-29T12:57:10.662Z,84.60
2023-08-29T12:59:59.246Z,84.56
2023-08-29T13:02:48.686Z,83.70
2023-08-29T13:05:37.545Z,83.82
2023-08-29T13:08:26.336Z,83.73
2023-08-29T13:11:14.960Z,83.78
2023-08-29T13:14:04.522Z,84.08
2023-08-29T13:16:55.556Z,84.06
2023-08-29T13:19:44.160Z,84.01
2023-08-29T13:22:32.744Z,84.40
2023-08-29T13:25:22.272Z,84.57
2023-08-29T13:28:11.045Z,84.35
2023-08-29T13:31:00.191Z,84.05
2023-08-29T13:33:50.039Z,83.77
2023-08-29T13:36:41.446Z,83.63
2023-08-29T13:39:30.186Z,84.01
2023-08-29T13:42:18.873Z,84.46
2023-08-29T13:45:08.519Z,85.39
2023-08-29T13:47:57.204Z,85.57
2023-08-29T13:50:46.345Z,85.19
2023-08-29T13:53:35.039Z,86.18
2023-08-29T13:56:23.672Z,86.73
2023-08-29T13:59:12.331Z,86.43
2023-08-29T14:02:00.969Z,86.44
2023-08-29T14:04:49.607Z,87.14
2023-08-29T14:07:38.267Z,87.47
2023-08-29T14:10:26.904Z,88.08
2023-08-29T14:13:15.565Z,88.45
2023-08-29T14:16:04.860Z,88.44
2023-08-29T14:18:54.056Z,88.73
2023-08-29T14:21:42.976Z,88.97
2023-08-29T14:24:31.536Z,88.81
2023-08-29T14:27:20.038Z,88.36
2023-08-29T14:30:08.808Z,88.27
2023-08-29T14:32:57.612Z,88.38
2023-08-29T14:35:46.189Z,87.89
2023-08-29T14:38:34.833Z,86.71
2023-08-29T14:41:23.438Z,86.02
2023-08-29T14:44:12.007Z,86.61
2023-08-29T14:47:00.637Z,87.10
2023-08-29T14:49:49.135Z,87.92
2023-08-29T14:52:38.782Z,88.47
2023-08-29T14:55:27.342Z,88.42
2023-08-29T14:58:15.896Z,86.34
2023-08-29T15:01:04.685Z,85.92
2023-08-29T15:03:53.326Z,86.94
2023-08-29T15:06:41.908Z,87.42
2023-08-29T15:09:30.440Z,88.01
2023-08-29T15:12:22.611Z,88.09
2023-08-29T15:15:11.323Z,88.33
2023-08-29T15:17:59.899Z,88.02
2023-08-29T15:20:49.806Z,87.39
2023-08-29T15:23:38.369Z,87.48
2023-08-29T15:26:27.011Z,86.60
2023-08-29T15:29:17.631Z,86.71
2023-08-29T15:32:06.523Z,87.57
2023-08-29T15:34:55.123Z,87.57
2023-08-29T15:37:43.679Z,87.18
2023-08-29T15:40:32.609Z,86.97
2023-08-29T15:43:22.758Z,87.56
2023-08-29T15:46:11.409Z,88.12
2023-08-29T15:48:59.947Z,89.10
2023-08-29T15:51:48.498Z,89.46
2023-08-29T15:54:37.222Z,89.54
2023-08-29T15:57:25.838Z,89.54
2023-08-29T16:00:17.765Z,88.64
2023-08-29T16:03:07.908Z,88.19
2023-08-29T16:05:56.670Z,88.31
2023-08-29T16:08:45.248Z,88.80
2023-08-29T16:11:33.868Z,89.24
2023-08-29T16:14:23.353Z,89.96
2023-08-29T16:17:11.954Z,90.02
2023-08-29T16:20:00.542Z,89.16
2023-08-29T16:22:49.138Z,88.84
2023-08-29T16:25:37.696Z,90.06
2023-08-29T16:28:26.953Z,90.57
2023-08-29T16:31:15.614Z,90.14
2023-08-29T16:34:04.210Z,91.44
2023-08-29T16:36:52.844Z,91.04
2023-08-29T16:39:41.567Z,90.88
2023-08-29T16:42:33.828Z,91.06
2023-08-29T16:45:24.641Z,90.98
2023-08-29T16:48:13.128Z,91.00
2023-08-29T16:51:01.666Z,91.29
2023-08-29T16:53:50.221Z,91.97
2023-08-29T16:56:38.749Z,92.31
2023-08-29T16:59:31.552Z,92.20
2023-08-29T17:02:20.409Z,92.41
2023-08-29T17:05:09.280Z,92.08
2023-08-29T17:07:58.443Z,91.04
2023-08-29T17:10:47.706Z,91.31
2023-08-29T17:13:36.223Z,90.74
2023-08-29T17:16:24.867Z,90.15
2023-08-29T17:19:14.096Z,90.28
2023-08-29T17:22:03.396Z,90.73
2023-08-29T17:24:52.434Z,91.06
2023-08-29T17:27:41.164Z,91.04
2023-08-29T17:30:29.688Z,90.85
2023-08-29T17:33:20.384Z,90.76
2023-08-29T17:36:09.167Z,89.98
2023-08-29T17:38:57.770Z,89.99
2023-08-29T17:41:46.332Z,88.89
2023-08-29T17:44:34.865Z,89.15
2023-08-29T17:47:23.469Z,89.45
2023-08-29T17:50:13.807Z,89.31
2023-08-29T17:53:02.457Z,89.76
2023-08-29T17:55:53.518Z,89.97
2023-08-29T17:58:42.070Z,90.21
2023-08-29T18:01:30.707Z,90.56
2023-08-29T18:04:19.282Z,90.71
2023-08-29T18:07:09.606Z,90.95
2023-08-29T18:10:14.664Z,91.09
2023-08-29T18:13:03.830Z,91.17
2023-08-29T18:15:52.565Z,90.98
2023-08-29T18:18:41.180Z,90.03
2023-08-29T18:21:29.851Z,90.10
2023-08-29T18:24:18.374Z,89.78
2023-08-29T18:27:06.938Z,89.82
2023-08-29T18:29:55.477Z,90.75
2023-08-29T18:32:44.271Z,91.16
2023-08-29T18:35:34.844Z,90.97
2023-08-29T18:38:24.777Z,90.31
2023-08-29T18:41:13.353Z,90.31
2023-08-29T18:44:01.923Z,90.33
2023-08-29T18:46:50.445Z,90.90
2023-08-29T18:49:39.142Z,91.47
2023-08-29T18:52:27.656Z,91.64
2023-08-29T18:55:16.942Z,91.93
2023-08-29T18:58:05.908Z,92.10
2023-08-29T19:00:54.691Z,92.15
2023-08-29T19:03:44.762Z,92.62
2023-08-29T19:06:33.635Z,92.43
2023-08-29T19:09:22.380Z,92.02
2023-08-29T19:12:11.005Z,92.08
2023-08-29T19:15:01.849Z,92.70
2023-08-29T19:17:50.390Z,93.17
2023-08-29T19:20:39.282Z,93.02
2023-08-29T19:23:29.341Z,92.52
2023-08-29T19:26:18.541Z,92.80
2023-08-29T19:29:07.158Z,92.99
2023-08-29T19:31:55.842Z,92.63
2023-08-29T19:34:44.372Z,92.79
2023-08-29T19:37:33.231Z,93.77
2023-08-29T19:40:21.994Z,93.74
2023-08-29T19:43:10.520Z,93.85
2023-08-29T19:45:59.197Z,93.96
2023-08-29T19:48:47.753Z,94.34
2023-08-29T19:51:36.300Z,95.02
2023-08-29T19:54:24.911Z,94.79
2023-08-29T19:57:14.374Z,94.21
2023-08-29T20:00:06.314Z,94.42
2023-08-29T20:03:02.420Z,94.66
2023-08-29T20:05:51.041Z,95.07
2023-08-29T20:08:39.834Z,95.31
2023-08-29T20:11:28.734Z,95.49
2023-08-29T20:14:17.425Z,95.35
2023-08-29T20:17:06.641Z,94.89
2023-08-29T20:19:55.299Z,94.75
2023-08-29T20:22:44.567Z,94.72
2023-08-29T20:25:33.987Z,94.79
2023-08-29T20:28:22.873Z,94.99
2023-08-29T20:31:12.252Z,94.92
2023-08-29T20:34:00.849Z,94.76
2023-08-29T20:36:49.506Z,94.24
2023-08-29T20:39:38.913Z,94.14
2023-08-29T20:42:27.508Z,93.48
2023-08-29T20:45:16.459Z,93.38
2023-08-29T20:48:05.601Z,93.13
2023-08-29T20:51:02.229Z,93.73
2023-08-29T20:53:51.210Z,93.86
2023-08-29T20:56:39.826Z,94.04
2023-08-29T20:59:28.786Z,93.92
2023-08-29T21:02:17.429Z,93.43
2023-08-29T21:05:06.817Z,93.58
2023-08-29T21:07:55.341Z,93.93
2023-08-29T21:10:44.692Z,93.71
2023-08-29T21:13:33.292Z,93.53
2023-08-29T21:16:21.835Z,93.60
2023-08-29T21:19:10.377Z,93.76
2023-08-29T21:21:59.250Z,94.22
2023-08-29T21:24:47.841Z,94.16
2023-08-29T21:27:36.357Z,94.17
2023-08-29T21:30:24.910Z,94.07
2023-08-29T21:33:14.897Z,94.07
2023-08-29T21:36:04.321Z,94.13
2023-08-29T21:38:52.912Z,94.10
2023-08-29T21:41:41.884Z,93.80
2023-08-29T21:44:30.383Z,93.95
2023-08-29T21:47:18.962Z,93.99
2023-08-29T21:50:07.951Z,93.58
2023-08-29T21:52:56.759Z,94.11
2023-08-29T21:55:45.987Z,94.02
2023-08-29T21:58:34.605Z,94.15
2023-08-29T22:01:23.186Z,94.15
2023-08-29T22:04:11.734Z,94.17
2023-08-29T22:07:00.283Z,93.42
2023-08-29T22:09:48.862Z,93.21
2023-08-29T22:12:37.713Z,93.31
2023-08-29T22:15:26.291Z,93.69
2023-08-29T22:18:14.942Z,93.35
2023-08-29T22:21:07.845Z,93.31
2023-08-29T22:23:56.516Z,94.06
2023-08-29T22:26:45.040Z,94.22
2023-08-29T22:29:34.940Z,93.85
2023-08-29T22:32:23.940Z,93.88
2023-08-29T22:35:12.652Z,93.63
2023-08-29T22:38:01.655Z,93.49
2023-08-29T22:40:50.636Z,93.21
2023-08-29T22:43:39.260Z,93.22
2023-08-29T22:46:27.931Z,93.44
2023-08-29T22:49:16.858Z,94.11
2023-08-29T22:52:05.875Z,94.49
2023-08-29T22:54:54.527Z,95.13
2023-08-29T22:57:43.154Z,95.05
2023-08-29T23:00:31.840Z,95.41
2023-08-29T23:03:20.651Z,95.91
2023-08-29T23:06:09.349Z,95.60
2023-08-29T23:08:58.911Z,95.34
2023-08-29T23:11:47.482Z,95.11
2023-08-29T23:14:36.151Z,94.66
2023-08-29T23:17:25.013Z,94.78
2023-08-29T23:20:13.871Z,94.79
2023-08-29T23:23:02.528Z,94.21
2023-08-29T23:25:59.131Z,93.77
2023-08-29T23:28:47.797Z,94.17
2023-08-29T23:31:36.509Z,94.73
2023-08-29T23:34:26.660Z,95.42
2023-08-29T23:37:15.240Z,95.66
2023-08-29T23:40:08.075Z,96.25
2023-08-29T23:42:56.935Z,96.88
2023-08-29T23:45:45.551Z,96.62
2023-08-29T23:48:34.692Z,97.07
2023-08-29T23:51:23.601Z,97.28
2023-08-29T23:54:12.181Z,97.20
2023-08-29T23:57:00.712Z,96.86
2023-08-29T23:59:49.347Z,96.56
